createdAt,value
2022-12-23T00:02:23.082Z,100222.75
2022-12-23T00:05:27.735Z,100223.59
2022-12-23T00:08:36.028Z,100235.66
2022-12-23T00:11:59.788Z,100226.16
2022-12-23T00:15:06.921Z,100224.34
2022-12-23T00:18:10.598Z,100219.09
2022-12-23T00:21:17.677Z,100219.03
2022-12-23T00:24:21.354Z,100225.97
2022-12-23T00:27:24.911Z,100222.47
2022-12-23T00:30:30.035Z,100222.47
2022-12-23T00:33:36.583Z,100213.84
2022-12-23T00:36:41.020Z,100223.34
2022-12-23T00:40:06.563Z,100220.75
2022-12-23T00:43:10.710Z,100221.63
2022-12-23T00:46:15.900Z,100236.34
2022-12-23T00:49:50.317Z,100232.81
2022-12-23T00:52:53.997Z,100231.06
2022-12-23T00:55:57.634Z,100235.44
2022-12-23T00:59:02.050Z,100240.72
2022-12-23T01:02:24.506Z,100238.97
2022-12-23T01:05:40.567Z,100233.78
2022-12-23T01:08:44.276Z,100243.34
2022-12-23T01:11:47.998Z,100232.91
2022-12-23T01:14:51.651Z,100236.34
2022-12-23T01:17:57.017Z,100246.69
2022-12-23T01:21:04.445Z,100250.25
2022-12-23T01:24:08.853Z,100244.19
2022-12-23T01:27:12.509Z,100244.09
2022-12-23T01:30:16.559Z,100252.81
2022-12-23T01:33:21.845Z,100258.88
2022-12-23T01:36:25.932Z,100258.81
2022-12-23T01:39:29.588Z,100260.59
2022-12-23T01:42:45.331Z,100258.00
2022-12-23T01:45:49.605Z,100258.88
2022-12-23T01:48:55.348Z,100255.28
2022-12-23T01:51:59.034Z,100253.56
2022-12-23T01:55:02.932Z,100254.44
2022-12-23T01:58:13.312Z,100261.38
2022-12-23T02:01:34.645Z,100262.22
2022-12-23T02:04:39.861Z,100258.81
2022-12-23T02:08:01.642Z,100263.25
2022-12-23T02:11:32.269Z,100272.78
2022-12-23T02:15:34.019Z,100276.25
2022-12-23T02:19:07.825Z,100265.84
2022-12-23T02:22:43.136Z,100272.84
2022-12-23T02:26:22.942Z,100265.84
2022-12-23T02:30:25.203Z,100271.00
2022-12-23T02:33:52.705Z,100271.84
2022-12-23T02:37:06.495Z,100273.53
2022-12-23T02:40:20.531Z,100274.50
2022-12-23T02:43:35.454Z,100281.53
2022-12-23T02:46:47.457Z,100285.97
2022-12-23T02:49:57.909Z,100288.56
2022-12-23T02:53:10.646Z,100298.91
2022-12-23T02:56:18.317Z,100296.28
2022-12-23T02:59:26.871Z,100296.25
2022-12-23T03:02:32.388Z,100304.97
2022-12-23T03:05:43.958Z,100305.81
2022-12-23T03:08:48.522Z,100314.53
2022-12-23T03:12:05.217Z,100321.50
2022-12-23T03:15:32.112Z,100320.63
2022-12-23T03:18:51.639Z,100311.97
2022-12-23T03:22:11.147Z,100314.56
2022-12-23T03:25:25.292Z,100312.97
2022-12-23T03:28:40.784Z,100320.69
2022-12-23T03:31:46.691Z,100326.75
2022-12-23T03:34:56.883Z,100331.97
2022-12-23T03:38:05.111Z,100337.16
2022-12-23T03:41:15.917Z,100337.16
2022-12-23T03:44:27.958Z,100338.13
2022-12-23T03:47:39.521Z,100342.53
2022-12-23T03:50:45.316Z,100346.03
2022-12-23T03:53:57.317Z,100343.41
2022-12-23T03:57:06.939Z,100333.06
2022-12-23T04:00:13.199Z,100332.28
2022-12-23T04:03:28.196Z,100331.47
2022-12-23T04:06:43.610Z,100337.53
2022-12-23T04:09:50.668Z,100347.03
2022-12-23T04:12:54.993Z,100347.81
2022-12-23T04:16:00.449Z,100347.03
2022-12-23T04:19:04.191Z,100356.59
2022-12-23T04:22:07.857Z,100360.94
2022-12-23T04:25:14.541Z,100361.75
2022-12-23T04:28:20.180Z,100370.38
2022-12-23T04:31:23.849Z,100369.47
2022-12-23T04:34:27.583Z,100377.28
2022-12-23T04:37:31.393Z,100377.34
2022-12-23T04:40:37.244Z,100379.94
2022-12-23T04:43:40.804Z,100394.75
2022-12-23T04:46:44.610Z,100394.72
2022-12-23T04:49:48.263Z,100399.06
2022-12-23T04:52:51.844Z,100398.13
2022-12-23T04:55:57.003Z,100390.34
2022-12-23T04:59:02.298Z,100387.81
2022-12-23T05:02:06.272Z,100396.44
2022-12-23T05:05:10.695Z,100395.59
2022-12-23T05:08:14.286Z,100395.53
2022-12-23T05:11:19.534Z,100394.78
2022-12-23T05:14:23.270Z,100402.56
2022-12-23T05:17:26.936Z,100401.69
2022-12-23T05:20:30.522Z,100408.66
2022-12-23T05:23:34.376Z,100413.94
2022-12-23T05:26:39.754Z,100412.13
2022-12-23T05:29:43.472Z,100411.34
2022-12-23T05:32:47.137Z,100420.03
2022-12-23T05:35:50.743Z,100422.53
2022-12-23T05:38:54.365Z,100440.75
2022-12-23T05:41:59.375Z,100443.41
2022-12-23T05:45:02.976Z,100446.03
2022-12-23T05:48:07.126Z,100444.34
2022-12-23T05:51:10.758Z,100435.69
2022-12-23T05:54:14.515Z,100424.38
2022-12-23T05:57:19.648Z,100420.06
2022-12-23T06:00:24.516Z,100418.22
2022-12-23T06:03:28.507Z,100412.06
2022-12-23T06:06:32.242Z,100413.84
2022-12-23T06:09:36.110Z,100426.06
2022-12-23T06:12:41.198Z,100424.31
2022-12-23T06:15:44.933Z,100410.38
2022-12-23T06:18:48.585Z,100416.53
2022-12-23T06:21:52.311Z,100420.78
2022-12-23T06:24:55.905Z,100437.16
2022-12-23T06:28:01.039Z,100437.06
2022-12-23T06:31:04.839Z,100439.72
2022-12-23T06:34:08.580Z,100439.72
2022-12-23T06:37:12.725Z,100446.56
2022-12-23T06:40:16.612Z,100450.94
2022-12-23T06:43:21.875Z,100450.75
2022-12-23T06:46:25.712Z,100453.38
2022-12-23T06:49:29.469Z,100455.06
2022-12-23T06:52:33.245Z,100475.09
2022-12-23T06:55:37.077Z,100497.59
2022-12-23T06:58:42.097Z,100504.56
2022-12-23T07:01:45.923Z,100508.91
2022-12-23T07:04:49.648Z,100498.53
2022-12-23T07:07:53.309Z,100502.03
2022-12-23T07:11:00.148Z,100502.88
2022-12-23T07:14:05.213Z,100496.03
2022-12-23T07:17:09.132Z,100494.34
2022-12-23T07:20:14.807Z,100491.75
2022-12-23T07:23:18.612Z,100502.19
2022-12-23T07:26:22.249Z,100505.78
2022-12-23T07:29:27.399Z,100500.69
2022-12-23T07:32:31.012Z,100513.69
2022-12-23T07:35:34.709Z,100516.22
2022-12-23T07:38:38.636Z,100522.38
2022-12-23T07:41:42.530Z,100522.31
2022-12-23T07:44:47.568Z,100523.94
2022-12-23T07:47:54.802Z,100536.97
2022-12-23T07:51:02.872Z,100536.13
2022-12-23T07:54:06.982Z,100540.50
2022-12-23T07:57:10.624Z,100542.16
2022-12-23T08:00:17.645Z,100546.44
2022-12-23T08:03:21.286Z,100558.47
2022-12-23T08:06:25.493Z,100563.66
2022-12-23T08:09:29.301Z,100560.22
2022-12-23T08:12:33.504Z,100567.94
2022-12-23T08:15:39.675Z,100572.28
2022-12-23T08:18:43.729Z,100580.00
2022-12-23T08:21:47.427Z,100579.94
2022-12-23T08:24:54.036Z,100585.13
2022-12-23T08:27:57.718Z,100586.91
2022-12-23T08:31:12.166Z,100599.84
2022-12-23T08:34:15.973Z,100605.88
2022-12-23T08:37:19.655Z,100596.31
2022-12-23T08:40:23.734Z,100605.81
2022-12-23T08:43:31.965Z,100601.44
2022-12-23T08:46:41.829Z,100594.50
2022-12-23T08:49:45.625Z,100598.75
2022-12-23T08:52:49.442Z,100598.72
2022-12-23T08:55:53.034Z,100604.81
2022-12-23T08:58:57.632Z,100597.78
2022-12-23T09:02:03.576Z,100599.56
2022-12-23T09:05:07.602Z,100602.03
2022-12-23T09:08:11.288Z,100595.03
2022-12-23T09:11:17.837Z,100595.06
2022-12-23T09:14:21.743Z,100581.84
2022-12-23T09:17:26.706Z,100572.38
2022-12-23T09:20:30.438Z,100565.28
2022-12-23T09:23:35.385Z,100566.78
2022-12-23T09:26:39.051Z,100571.28
2022-12-23T09:29:44.764Z,100575.59
2022-12-23T09:32:49.897Z,100575.53
2022-12-23T09:35:53.518Z,100578.03
2022-12-23T09:38:59.703Z,100581.50
2022-12-23T09:42:14.169Z,100584.81
2022-12-23T09:45:54.353Z,100594.31
2022-12-23T09:49:06.974Z,100590.72
2022-12-23T09:52:17.600Z,100600.97
2022-12-23T09:55:24.914Z,100589.63
2022-12-23T09:58:34.493Z,100588.59
2022-12-23T10:01:48.155Z,100583.22
2022-12-23T10:05:06.381Z,100585.13
2022-12-23T10:08:19.691Z,100594.72
2022-12-23T10:11:27.856Z,100590.31
2022-12-23T10:14:34.822Z,100587.44
2022-12-23T10:17:43.610Z,100574.31
2022-12-23T10:20:55.867Z,100565.75
2022-12-23T10:24:08.534Z,100569.34
2022-12-23T10:27:25.611Z,100553.72
2022-12-23T10:31:05.824Z,100544.94
2022-12-23T10:34:13.186Z,100560.78
2022-12-23T10:37:29.916Z,100572.00
2022-12-23T10:40:51.410Z,100569.41
2022-12-23T10:44:25.324Z,100565.00
2022-12-23T10:47:49.145Z,100551.00
2022-12-23T10:51:02.520Z,100545.72
2022-12-23T10:54:14.197Z,100544.00
2022-12-23T10:57:20.755Z,100542.31
2022-12-23T11:00:26.760Z,100543.13
2022-12-23T11:03:35.022Z,100529.22
2022-12-23T11:06:44.651Z,100530.72
2022-12-23T11:09:56.273Z,100520.41
2022-12-23T11:13:01.597Z,100526.47
2022-12-23T11:16:23.963Z,100525.97
2022-12-23T11:19:28.009Z,100530.25
2022-12-23T11:22:31.646Z,100528.28
2022-12-23T11:25:41.566Z,100526.31
2022-12-23T11:28:53.926Z,100529.81
2022-12-23T11:31:58.251Z,100511.44
2022-12-23T11:35:02.125Z,100515.56
2022-12-23T11:38:15.169Z,100513.75
2022-12-23T11:41:25.927Z,100502.41
2022-12-23T11:44:33.594Z,100500.59
2022-12-23T11:47:42.924Z,100488.28
2022-12-23T11:50:59.698Z,100491.69
2022-12-23T11:54:04.571Z,100493.03
2022-12-23T11:57:20.109Z,100504.78
2022-12-23T12:00:27.635Z,100503.91
2022-12-23T12:03:37.513Z,100510.94
2022-12-23T12:06:52.672Z,100504.72
2022-12-23T12:10:01.463Z,100500.25
2022-12-23T12:13:21.751Z,100500.41
2022-12-23T12:16:49.472Z,100493.25
2022-12-23T12:20:06.099Z,100491.44
2022-12-23T12:23:19.508Z,100478.63
2022-12-23T12:26:30.037Z,100475.00
2022-12-23T12:29:44.927Z,100482.91
2022-12-23T12:33:01.057Z,100473.06
2022-12-23T12:36:18.057Z,100477.75
2022-12-23T12:39:29.052Z,100464.75
2022-12-23T12:42:41.459Z,100451.88
2022-12-23T12:45:55.040Z,100452.50
2022-12-23T12:49:10.346Z,100437.53
2022-12-23T12:52:20.642Z,100444.78
2022-12-23T12:55:32.475Z,100432.31
2022-12-23T12:58:36.208Z,100432.38
2022-12-23T13:01:57.781Z,100427.28
2022-12-23T13:05:24.876Z,100435.09
2022-12-23T13:09:01.901Z,100442.78
2022-12-23T13:12:18.873Z,100441.38
2022-12-23T13:15:36.683Z,100441.50
2022-12-23T13:18:53.811Z,100434.38
2022-12-23T13:22:09.007Z,100424.94
2022-12-23T13:25:20.067Z,100432.03
2022-12-23T13:28:37.435Z,100437.97
2022-12-23T13:31:55.114Z,100436.53
2022-12-23T13:35:17.323Z,100434.94
2022-12-23T13:38:46.843Z,100438.47
2022-12-23T13:41:58.506Z,100420.19
2022-12-23T13:45:07.822Z,100410.69
2022-12-23T13:48:37.590Z,100419.44
2022-12-23T13:51:55.637Z,100422.81
2022-12-23T13:55:11.964Z,100413.38
2022-12-23T13:58:21.161Z,100418.59
2022-12-23T14:01:38.271Z,100419.56
2022-12-23T14:05:01.140Z,100415.06
2022-12-23T14:08:21.928Z,100422.13
2022-12-23T14:11:28.602Z,100416.91
2022-12-23T14:14:33.188Z,100416.28
2022-12-23T14:17:47.407Z,100405.84
2022-12-23T14:21:03.200Z,100405.94
2022-12-23T14:24:49.033Z,100408.50
2022-12-23T14:28:03.729Z,100400.75
2022-12-23T14:31:28.055Z,100403.28
2022-12-23T14:34:36.285Z,100400.81
2022-12-23T14:37:41.091Z,100394.78
2022-12-23T14:41:14.502Z,100392.31
2022-12-23T14:44:43.741Z,100386.22
2022-12-23T14:47:47.758Z,100383.63
2022-12-23T14:50:59.707Z,100374.97
2022-12-23T14:54:16.580Z,100378.53
2022-12-23T14:57:36.453Z,100371.72
2022-12-23T15:00:51.224Z,100371.69
2022-12-23T15:04:01.375Z,100374.31
2022-12-23T15:07:08.813Z,100365.66
2022-12-23T15:10:21.402Z,100368.34
2022-12-23T15:13:29.988Z,100364.91
2022-12-23T15:16:37.614Z,100360.66
2022-12-23T15:19:48.174Z,100360.78
2022-12-23T15:22:52.773Z,100359.09
2022-12-23T15:26:00.257Z,100361.69
2022-12-23T15:29:09.344Z,100356.66
2022-12-23T15:32:13.631Z,100354.94
2022-12-23T15:35:24.717Z,100350.59
2022-12-23T15:38:37.894Z,100349.72
2022-12-23T15:41:46.617Z,100342.91
2022-12-23T15:44:52.417Z,100341.19
2022-12-23T15:47:56.700Z,100335.19
2022-12-23T15:51:06.795Z,100342.00
2022-12-23T15:54:24.202Z,100348.16
2022-12-23T15:57:31.340Z,100340.38
2022-12-23T16:00:42.827Z,100335.25
2022-12-23T16:03:54.319Z,100331.63
2022-12-23T16:06:58.228Z,100326.56
2022-12-23T16:10:06.076Z,100329.97
2022-12-23T16:13:20.146Z,100325.69
2022-12-23T16:16:40.276Z,100319.63
2022-12-23T16:19:48.213Z,100326.56
2022-12-23T16:22:55.381Z,100328.28
2022-12-23T16:26:02.687Z,100323.00
2022-12-23T16:29:06.703Z,100318.75
2022-12-23T16:32:18.008Z,100323.97
2022-12-23T16:35:39.665Z,100323.97
2022-12-23T16:38:43.420Z,100315.31
2022-12-23T16:41:47.360Z,100318.69
2022-12-23T16:44:51.583Z,100314.34
2022-12-23T16:47:59.286Z,100307.22
2022-12-23T16:51:08.422Z,100313.44
2022-12-23T16:54:16.999Z,100310.06
2022-12-23T16:57:20.863Z,100303.16
2022-12-23T17:00:25.018Z,100299.75
2022-12-23T17:03:30.236Z,100298.84
2022-12-23T17:06:36.062Z,100292.00
2022-12-23T17:09:39.838Z,100293.72
2022-12-23T17:12:44.624Z,100293.72
2022-12-23T17:15:48.446Z,100283.28
2022-12-23T17:18:55.177Z,100285.09
2022-12-23T17:22:04.500Z,100280.72
2022-12-23T17:25:08.933Z,100278.13
2022-12-23T17:28:12.863Z,100274.72
2022-12-23T17:31:25.976Z,100275.56
2022-12-23T17:34:31.977Z,100276.53
2022-12-23T17:37:40.656Z,100267.84
2022-12-23T17:40:49.059Z,100267.06
2022-12-23T17:43:53.084Z,100269.66
2022-12-23T17:46:56.936Z,100265.34
2022-12-23T17:50:02.140Z,100267.09
2022-12-23T17:53:06.027Z,100261.03
2022-12-23T17:56:14.966Z,100261.09
2022-12-23T17:59:18.700Z,100265.47
2022-12-23T18:02:28.128Z,100254.19
2022-12-23T18:05:36.821Z,100260.25
2022-12-23T18:08:40.512Z,100262.06
2022-12-23T18:11:47.967Z,100261.19
2022-12-23T18:14:51.682Z,100259.50
2022-12-23T18:17:55.530Z,100262.09
2022-12-23T18:21:01.868Z,100262.97
2022-12-23T18:24:06.505Z,100267.38
2022-12-23T18:27:15.716Z,100265.66
2022-12-23T18:30:20.853Z,100265.69
2022-12-23T18:33:29.500Z,100264.81
2022-12-23T18:36:35.318Z,100270.84
2022-12-23T18:39:39.692Z,100262.13
2022-12-23T18:42:43.331Z,100265.72
2022-12-23T18:45:52.394Z,100267.41
2022-12-23T18:48:56.725Z,100258.88
2022-12-23T18:52:02.248Z,100255.44
2022-12-23T18:55:08.214Z,100255.44
2022-12-23T18:58:14.478Z,100255.44
2022-12-23T19:01:19.951Z,100250.25
2022-12-23T19:04:23.759Z,100257.31
2022-12-23T19:07:28.928Z,100255.53
2022-12-23T19:10:34.742Z,100258.09
2022-12-23T19:13:38.555Z,100261.59
2022-12-23T19:16:49.263Z,100272.00
2022-12-23T19:19:55.111Z,100273.78
2022-12-23T19:23:00.344Z,100266.88
2022-12-23T19:26:05.923Z,100265.16
2022-12-23T19:29:09.614Z,100266.88
2022-12-23T19:32:13.366Z,100261.78
2022-12-23T19:35:17.083Z,100262.56
2022-12-23T19:38:22.234Z,100262.59
2022-12-23T19:41:26.722Z,100269.47
2022-12-23T19:44:30.526Z,100267.88
2022-12-23T19:47:34.328Z,100268.72
2022-12-23T19:50:38.197Z,100266.13
2022-12-23T19:53:46.163Z,100272.13
2022-12-23T19:56:51.966Z,100265.25
2022-12-23T19:59:56.660Z,100274.78
2022-12-23T20:03:00.382Z,100273.06
2022-12-23T20:06:05.397Z,100273.97
2022-12-23T20:09:13.996Z,100278.38
2022-12-23T20:12:17.721Z,100275.75
2022-12-23T20:15:21.584Z,100276.59
2022-12-23T20:18:25.280Z,100276.69
2022-12-23T20:21:28.984Z,100280.13
2022-12-23T20:24:35.992Z,100277.56
2022-12-23T20:27:39.904Z,100283.66
2022-12-23T20:30:43.764Z,100273.16
2022-12-23T20:33:49.364Z,100289.72
2022-12-23T20:36:53.020Z,100292.25
2022-12-23T20:39:58.174Z,100281.06
2022-12-23T20:43:01.902Z,100280.19
2022-12-23T20:46:08.032Z,100286.25
2022-12-23T20:49:11.828Z,100288.88
2022-12-23T20:52:15.546Z,100281.09
2022-12-23T20:55:21.435Z,100282.78
2022-12-23T20:58:42.362Z,100280.28
2022-12-23T21:01:46.881Z,100292.47
2022-12-23T21:04:50.588Z,100291.56
2022-12-23T21:07:54.279Z,100288.13
2022-12-23T21:10:59.703Z,100289.03
2022-12-23T21:14:06.840Z,100293.34
2022-12-23T21:17:11.005Z,100296.00
2022-12-23T21:20:14.709Z,100290.78
2022-12-23T21:23:18.296Z,100296.84
2022-12-23T21:26:26.430Z,100291.63
2022-12-23T21:29:29.977Z,100297.81
2022-12-23T21:32:33.897Z,100296.03
2022-12-23T21:35:37.538Z,100304.75
2022-12-23T21:38:44.872Z,100297.03
2022-12-23T21:41:51.528Z,100309.09
2022-12-23T21:44:55.424Z,100311.63
2022-12-23T21:47:59.002Z,100315.16
2022-12-23T21:51:09.376Z,100308.22
2022-12-23T21:54:13.859Z,100307.41
2022-12-23T21:57:19.666Z,100311.69
2022-12-23T22:00:23.432Z,100318.63
2022-12-23T22:03:28.739Z,100323.88
2022-12-23T22:06:35.954Z,100324.66
2022-12-23T22:09:39.596Z,100322.97
2022-12-23T22:12:44.562Z,100330.78
2022-12-23T22:15:48.170Z,100329.00
2022-12-23T22:18:53.626Z,100327.25
2022-12-23T22:21:57.341Z,100321.19
2022-12-23T22:25:01.021Z,100324.75
2022-12-23T22:28:06.281Z,100329.91
2022-12-23T22:31:18.922Z,100330.81
2022-12-23T22:34:24.376Z,100342.00
2022-12-23T22:37:27.949Z,100333.38
2022-12-23T22:40:31.701Z,100337.69
2022-12-23T22:43:36.829Z,100337.69
2022-12-23T22:46:40.695Z,100336.81
2022-12-23T22:49:44.320Z,100340.34
2022-12-23T22:52:47.944Z,100339.53
2022-12-23T22:55:59.569Z,100342.97
2022-12-23T22:59:05.117Z,100352.53
2022-12-23T23:02:08.911Z,100356.81
2022-12-23T23:05:13.218Z,100344.75
2022-12-23T23:08:17.498Z,100343.06
2022-12-23T23:11:21.580Z,100349.97
2022-12-23T23:14:27.015Z,100344.78
2022-12-23T23:17:31.030Z,100345.69
2022-12-23T23:20:34.661Z,100351.84
2022-12-23T23:23:38.337Z,100349.97
2022-12-23T23:26:41.919Z,100353.53
2022-12-23T23:29:46.945Z,100349.25
2022-12-23T23:32:50.545Z,100344.91
2022-12-23T23:35:56.697Z,100337.16
2022-12-23T23:39:00.325Z,100343.19
2022-12-23T23:42:03.893Z,100341.50
2022-12-23T23:45:10.265Z,100338.88
2022-12-23T23:48:15.014Z,100345.84
2022-12-23T23:51:18.604Z,100345.84
2022-12-23T23:54:22.269Z,100348.47
2022-12-23T23:57:26.362Z,100343.25
